JTC427 KBED-TTCP
Flight info
| Callsign | JTC427 |
|---|---|
| Flight time | N/A |
| Altitude | 37000 |
| Route | BOS DCT MVY DCT CLAMY DCT TILED/M080F370 DCT AWSOM DCT 24N060W/M080F400 DCT KAVAX/N0457F400 DCT FAMPS DCT TAB |
| Aircraft | CL60/M-SADE3FGHIJ3J4J7P2RWXY/HB1D1 |
Departure
| Time | 2026-04-17 14:51 |
|---|---|
| Airport | Laurence G Hanscom Field (KBED) |
Arrival
| Time | N/A |
|---|---|
| Airport | A.N.R. Robinson International Airport (TTCP) |
| Time | Latitude | Longitude | Altitude | Speed | Heading |
|---|---|---|---|---|---|
| 2026-04-17 14:30 | 42.46336 | -71.29002 | 139 ft | 0 kts | 72° |
| 2026-04-17 14:45 | 42.46337 | -71.29001 | 139 ft | 2 kts | 72° |
| 2026-04-17 14:45 | 42.46373 | -71.28976 | 139 ft | 8 kts | 342° |
| 2026-04-17 14:45 | 42.46429 | -71.29009 | 139 ft | 8 kts | 338° |
| 2026-04-17 14:45 | 42.46480 | -71.29010 | 138 ft | 6 kts | 11° |
| 2026-04-17 14:46 | 42.46532 | -71.28996 | 138 ft | 8 kts | 13° |
| 2026-04-17 14:46 | 42.46566 | -71.28976 | 138 ft | 2 kts | 35° |
| 2026-04-17 14:46 | 42.46588 | -71.28954 | 139 ft | 6 kts | 41° |
| 2026-04-17 14:46 | 42.46637 | -71.28899 | 139 ft | 9 kts | 38° |
| 2026-04-17 14:47 | 42.46692 | -71.28841 | 139 ft | 10 kts | 37° |
| 2026-04-17 14:47 | 42.46749 | -71.28784 | 139 ft | 10 kts | 36° |
| 2026-04-17 14:47 | 42.46804 | -71.28717 | 138 ft | 10 kts | 49° |
| 2026-04-17 14:47 | 42.46833 | -71.28648 | 139 ft | 6 kts | 87° |
| 2026-04-17 14:48 | 42.46830 | -71.28590 | 139 ft | 7 kts | 97° |
| 2026-04-17 14:48 | 42.46819 | -71.28480 | 139 ft | 16 kts | 98° |
| 2026-04-17 14:48 | 42.46799 | -71.28294 | 138 ft | 23 kts | 99° |
| 2026-04-17 14:48 | 42.46776 | -71.28043 | 138 ft | 29 kts | 94° |
| 2026-04-17 14:49 | 42.46755 | -71.27799 | 139 ft | 23 kts | 97° |
| 2026-04-17 14:49 | 42.46759 | -71.27644 | 139 ft | 10 kts | 47° |
| 2026-04-17 14:49 | 42.46825 | -71.27598 | 139 ft | 10 kts | 8° |
| 2026-04-17 14:49 | 42.46870 | -71.27589 | 139 ft | 0 kts | 9° |
| 2026-04-17 14:50 | 42.46883 | -71.27586 | 139 ft | 6 kts | 9° |
| 2026-04-17 14:50 | 42.46950 | -71.27604 | 139 ft | 13 kts | 291° |
| 2026-04-17 14:50 | 42.47009 | -71.28162 | 139 ft | 108 kts | 276° |
| 2026-04-17 14:50 | 42.47139 | -71.29542 | 186 ft | 177 kts | 277° |
| 2026-04-17 14:51 | 42.47255 | -71.31271 | 922 ft | 192 kts | 274° |
| 2026-04-17 14:51 | 42.47336 | -71.33002 | 2078 ft | 187 kts | 276° |
| 2026-04-17 14:51 | 42.47420 | -71.34873 | 2697 ft | 215 kts | 276° |
| 2026-04-17 14:51 | 42.47163 | -71.36935 | 3370 ft | 239 kts | 245° |
| 2026-04-17 14:52 | 42.45939 | -71.38483 | 4251 ft | 252 kts | 205° |
| 2026-04-17 14:52 | 42.44148 | -71.38799 | 5070 ft | 272 kts | 168° |
| 2026-04-17 14:52 | 42.42500 | -71.37624 | 6196 ft | 277 kts | 133° |
| 2026-04-17 14:52 | 42.41571 | -71.35371 | 7274 ft | 281 kts | 103° |
| 2026-04-17 14:53 | 42.41167 | -71.32770 | 8278 ft | 291 kts | 100° |
| 2026-04-17 14:53 | 42.40777 | -71.30061 | 9314 ft | 299 kts | 100° |
| 2026-04-17 14:53 | 42.40364 | -71.27242 | 10327 ft | 308 kts | 100° |
| 2026-04-17 14:53 | 42.39919 | -71.24246 | 10651 ft | 342 kts | 101° |
| 2026-04-17 14:54 | 42.39418 | -71.20946 | 11172 ft | 365 kts | 101° |
| 2026-04-17 14:54 | 42.38886 | -71.17548 | 11976 ft | 376 kts | 102° |
| 2026-04-17 14:54 | 42.38314 | -71.14024 | 12861 ft | 384 kts | 103° |
| 2026-04-17 14:54 | 42.37710 | -71.10525 | 13698 ft | 391 kts | 103° |
| 2026-04-17 14:55 | 42.37074 | -71.06898 | 14524 ft | 398 kts | 104° |
| 2026-04-17 14:55 | 42.36161 | -71.03404 | 15389 ft | 399 kts | 119° |
| 2026-04-17 14:55 | 42.34573 | -71.00362 | 16247 ft | 396 kts | 137° |
| 2026-04-17 14:55 | 42.32449 | -70.98073 | 17088 ft | 391 kts | 154° |
| 2026-04-17 14:56 | 42.29975 | -70.96652 | 17925 ft | 385 kts | 167° |
| 2026-04-17 14:56 | 42.27432 | -70.95651 | 18723 ft | 386 kts | 169° |
| 2026-04-17 14:56 | 42.24828 | -70.94630 | 19474 ft | 388 kts | 168° |
| 2026-04-17 14:56 | 42.22267 | -70.93623 | 20148 ft | 391 kts | 169° |
| 2026-04-17 14:57 | 42.19633 | -70.92587 | 20840 ft | 394 kts | 168° |
| 2026-04-17 14:57 | 42.16987 | -70.91546 | 21488 ft | 396 kts | 169° |
| 2026-04-17 14:57 | 42.14347 | -70.90507 | 22130 ft | 398 kts | 169° |
| 2026-04-17 14:57 | 42.11719 | -70.89474 | 22756 ft | 400 kts | 169° |
| 2026-04-17 14:58 | 42.09055 | -70.88427 | 23340 ft | 402 kts | 169° |
| 2026-04-17 14:58 | 42.06352 | -70.87365 | 23931 ft | 405 kts | 169° |
| 2026-04-17 14:58 | 42.03647 | -70.86302 | 24457 ft | 408 kts | 169° |
| 2026-04-17 14:58 | 42.00907 | -70.85226 | 24987 ft | 411 kts | 169° |
| 2026-04-17 14:59 | 41.98182 | -70.84158 | 25486 ft | 414 kts | 169° |
| 2026-04-17 14:59 | 41.95411 | -70.83072 | 25952 ft | 418 kts | 169° |
| 2026-04-17 14:59 | 41.92596 | -70.81969 | 26430 ft | 420 kts | 169° |
| 2026-04-17 14:59 | 41.89789 | -70.80869 | 26857 ft | 424 kts | 169° |
| 2026-04-17 15:00 | 41.86933 | -70.79752 | 27276 ft | 427 kts | 169° |
| 2026-04-17 15:00 | 41.84072 | -70.78634 | 27669 ft | 431 kts | 169° |
| 2026-04-17 15:00 | 41.81174 | -70.77502 | 28069 ft | 434 kts | 169° |
| 2026-04-17 15:00 | 41.78256 | -70.76363 | 28483 ft | 435 kts | 169° |
| 2026-04-17 15:01 | 41.75354 | -70.75230 | 28815 ft | 439 kts | 169° |
| 2026-04-17 15:01 | 41.72402 | -70.74081 | 29129 ft | 442 kts | 169° |
| 2026-04-17 15:01 | 41.69423 | -70.72920 | 29474 ft | 444 kts | 169° |
| 2026-04-17 15:01 | 41.66458 | -70.71766 | 29879 ft | 444 kts | 169° |
| 2026-04-17 15:02 | 41.63495 | -70.70612 | 30316 ft | 443 kts | 169° |
| 2026-04-17 15:02 | 41.60557 | -70.69470 | 30744 ft | 442 kts | 169° |
| 2026-04-17 15:02 | 41.57594 | -70.68320 | 31136 ft | 442 kts | 169° |
| 2026-04-17 15:02 | 41.54672 | -70.67186 | 31515 ft | 442 kts | 169° |
| 2026-04-17 15:03 | 41.51681 | -70.66027 | 31873 ft | 442 kts | 169° |
| 2026-04-17 15:03 | 41.48750 | -70.64893 | 32202 ft | 442 kts | 169° |
| 2026-04-17 15:03 | 41.45794 | -70.63750 | 32500 ft | 443 kts | 169° |
| 2026-04-17 15:03 | 41.42821 | -70.62601 | 32804 ft | 444 kts | 169° |
| 2026-04-17 15:04 | 41.39849 | -70.61455 | 33094 ft | 445 kts | 169° |
| 2026-04-17 15:04 | 41.36904 | -70.60361 | 33392 ft | 444 kts | 171° |
| 2026-04-17 15:04 | 41.33890 | -70.59295 | 33667 ft | 444 kts | 171° |
| 2026-04-17 15:04 | 41.30913 | -70.58244 | 33928 ft | 445 kts | 171° |
| 2026-04-17 15:05 | 41.27938 | -70.57192 | 34189 ft | 445 kts | 171° |
| 2026-04-17 15:05 | 41.24929 | -70.56130 | 34444 ft | 445 kts | 171° |
| 2026-04-17 15:05 | 41.21941 | -70.55075 | 34704 ft | 444 kts | 171° |
| 2026-04-17 15:05 | 41.18952 | -70.54020 | 34968 ft | 444 kts | 171° |
| 2026-04-17 15:06 | 41.15986 | -70.52869 | 35216 ft | 446 kts | 168° |
| 2026-04-17 15:06 | 41.13023 | -70.51614 | 35468 ft | 445 kts | 167° |
| 2026-04-17 15:06 | 41.10075 | -70.50368 | 35701 ft | 445 kts | 167° |
| 2026-04-17 15:06 | 41.07127 | -70.49123 | 35924 ft | 445 kts | 167° |
| 2026-04-17 15:07 | 41.04165 | -70.47874 | 36196 ft | 444 kts | 167° |
| 2026-04-17 15:07 | 41.01236 | -70.46639 | 36476 ft | 444 kts | 167° |
| 2026-04-17 15:07 | 40.98272 | -70.45391 | 36708 ft | 444 kts | 167° |
| 2026-04-17 15:07 | 40.95334 | -70.44156 | 36906 ft | 445 kts | 167° |
| 2026-04-17 15:08 | 40.89344 | -70.41644 | 36890 ft | 454 kts | 167° |
| 2026-04-17 15:08 | 40.83299 | -70.39110 | 36890 ft | 458 kts | 167° |
| 2026-04-17 15:09 | 40.77202 | -70.36557 | 36895 ft | 458 kts | 167° |
| 2026-04-17 15:09 | 40.71122 | -70.34016 | 36896 ft | 456 kts | 168° |
| 2026-04-17 15:10 | 40.65126 | -70.31516 | 36898 ft | 456 kts | 168° |
| 2026-04-17 15:10 | 40.62062 | -70.30241 | 37003 ft | 459 kts | 168° |
| 2026-04-17 15:11 | 40.56023 | -70.27728 | 36910 ft | 454 kts | 168° |
| 2026-04-17 15:11 | 40.50010 | -70.25232 | 36900 ft | 452 kts | 168° |
| 2026-04-17 15:12 | 40.44002 | -70.22743 | 36897 ft | 453 kts | 168° |
| 2026-04-17 15:12 | 40.37993 | -70.20259 | 36898 ft | 453 kts | 168° |
| 2026-04-17 15:13 | 40.31970 | -70.17774 | 36896 ft | 452 kts | 168° |
| 2026-04-17 15:13 | 40.25938 | -70.15290 | 36908 ft | 452 kts | 168° |
| 2026-04-17 15:14 | 40.19926 | -70.12818 | 36904 ft | 452 kts | 168° |
| 2026-04-17 15:14 | 40.13939 | -70.10362 | 36904 ft | 453 kts | 168° |
| 2026-04-17 15:15 | 40.07937 | -70.07903 | 36903 ft | 453 kts | 168° |
| 2026-04-17 15:15 | 40.01926 | -70.05445 | 36904 ft | 453 kts | 168° |
| 2026-04-17 15:16 | 39.95919 | -70.02994 | 36906 ft | 453 kts | 168° |
| 2026-04-17 15:16 | 39.89926 | -70.00552 | 36907 ft | 453 kts | 168° |
| 2026-04-17 15:17 | 39.83878 | -69.98093 | 36908 ft | 453 kts | 168° |
| 2026-04-17 15:17 | 39.77891 | -69.95663 | 36905 ft | 452 kts | 168° |
| 2026-04-17 15:18 | 39.71863 | -69.93220 | 36902 ft | 451 kts | 169° |
| 2026-04-17 15:18 | 39.65887 | -69.90803 | 36890 ft | 450 kts | 169° |
| 2026-04-17 15:19 | 39.59897 | -69.88384 | 36888 ft | 450 kts | 169° |
| 2026-04-17 15:19 | 39.53936 | -69.85983 | 36894 ft | 450 kts | 169° |
| 2026-04-17 15:20 | 39.47953 | -69.83575 | 36892 ft | 450 kts | 169° |
| 2026-04-17 15:20 | 39.41970 | -69.81173 | 36894 ft | 450 kts | 169° |
| 2026-04-17 15:21 | 39.35979 | -69.78771 | 36903 ft | 449 kts | 169° |
| 2026-04-17 15:21 | 39.30015 | -69.76384 | 36903 ft | 448 kts | 169° |
| 2026-04-17 15:22 | 39.24065 | -69.74007 | 36902 ft | 448 kts | 169° |
| 2026-04-17 15:22 | 39.18099 | -69.71629 | 36898 ft | 448 kts | 169° |
| 2026-04-17 15:23 | 39.12129 | -69.69253 | 36908 ft | 448 kts | 169° |
| 2026-04-17 15:23 | 39.06168 | -69.66885 | 36908 ft | 448 kts | 169° |
| 2026-04-17 15:24 | 39.00236 | -69.64531 | 36910 ft | 447 kts | 169° |
| 2026-04-17 15:24 | 38.94333 | -69.62193 | 36910 ft | 446 kts | 169° |
| 2026-04-17 15:25 | 38.88405 | -69.59850 | 36911 ft | 446 kts | 169° |
| 2026-04-17 15:25 | 38.82468 | -69.57508 | 36914 ft | 446 kts | 169° |
| 2026-04-17 15:26 | 38.76541 | -69.55173 | 36913 ft | 446 kts | 170° |
| 2026-04-17 15:26 | 38.70607 | -69.52840 | 36917 ft | 445 kts | 169° |
| 2026-04-17 15:27 | 38.64686 | -69.50516 | 36915 ft | 444 kts | 169° |
| 2026-04-17 15:27 | 38.58818 | -69.48216 | 36923 ft | 444 kts | 170° |
| 2026-04-17 15:28 | 38.52896 | -69.45900 | 36928 ft | 444 kts | 169° |
| 2026-04-17 15:28 | 38.46987 | -69.43592 | 36927 ft | 443 kts | 170° |
| 2026-04-17 15:29 | 38.41088 | -69.41292 | 36929 ft | 443 kts | 169° |
| 2026-04-17 15:29 | 38.35193 | -69.38998 | 36930 ft | 443 kts | 169° |
| 2026-04-17 15:30 | 38.29308 | -69.36711 | 36938 ft | 443 kts | 169° |
| 2026-04-17 15:30 | 38.23430 | -69.34431 | 36938 ft | 442 kts | 170° |
| 2026-04-17 15:31 | 38.17535 | -69.32147 | 36944 ft | 441 kts | 171° |
| 2026-04-17 15:31 | 38.11683 | -69.29885 | 36954 ft | 441 kts | 170° |
| 2026-04-17 15:32 | 38.05819 | -69.27622 | 36960 ft | 441 kts | 170° |
| 2026-04-17 15:32 | 37.99959 | -69.25365 | 36962 ft | 441 kts | 170° |
| 2026-04-17 15:33 | 37.94072 | -69.23099 | 36973 ft | 440 kts | 171° |
| 2026-04-17 15:33 | 37.88208 | -69.20848 | 36966 ft | 440 kts | 170° |
| 2026-04-17 15:34 | 37.82336 | -69.18597 | 36968 ft | 441 kts | 171° |
| 2026-04-17 15:34 | 37.76441 | -69.16341 | 36974 ft | 441 kts | 170° |
| 2026-04-17 15:35 | 37.70565 | -69.14095 | 36973 ft | 441 kts | 170° |
| 2026-04-17 15:35 | 37.64688 | -69.11854 | 36974 ft | 441 kts | 170° |
| 2026-04-17 15:36 | 37.58830 | -69.09622 | 36977 ft | 441 kts | 170° |
| 2026-04-17 15:36 | 37.52940 | -69.07383 | 36977 ft | 441 kts | 170° |
| 2026-04-17 15:37 | 37.47057 | -69.05150 | 36975 ft | 441 kts | 170° |
| 2026-04-17 15:37 | 37.41199 | -69.02930 | 36978 ft | 441 kts | 170° |
| 2026-04-17 15:38 | 37.35304 | -69.00700 | 36979 ft | 442 kts | 170° |
| 2026-04-17 15:38 | 37.29413 | -68.98474 | 36988 ft | 442 kts | 170° |
| 2026-04-17 15:39 | 37.23555 | -68.96191 | 36985 ft | 443 kts | 169° |
| 2026-04-17 15:39 | 37.17666 | -68.93792 | 36990 ft | 443 kts | 169° |